createdAt,value
2017-05-27T00:00:05.525Z,18.17
2017-05-27T00:00:46.005Z,18.12
2017-05-27T00:01:26.494Z,18.14
2017-05-27T00:02:06.985Z,18.15
2017-05-27T00:02:47.478Z,18.12
2017-05-27T00:03:29.883Z,18.03
2017-05-27T00:04:10.372Z,18.07
2017-05-27T00:04:51.800Z,18.1
2017-05-27T00:05:32.283Z,18.11
2017-05-27T00:06:12.780Z,18.18
2017-05-27T00:06:53.272Z,18.14
2017-05-27T00:07:33.755Z,18.07
2017-05-27T00:08:14.251Z,18.1
2017-05-27T00:08:54.745Z,18.12
2017-05-27T00:09:35.225Z,18.17
2017-05-27T00:10:15.723Z,18.1
2017-05-27T00:10:56.228Z,18.14
2017-05-27T00:11:36.712Z,18.15
2017-05-27T00:12:18.126Z,17.97
2017-05-27T00:12:58.626Z,18.07
2017-05-27T00:13:39.113Z,18.11
2017-05-27T00:14:19.605Z,18.1
2017-05-27T00:15:00.078Z,18.05
2017-05-27T00:15:40.572Z,17.92
2017-05-27T00:16:21.077Z,17.96
2017-05-27T00:17:01.581Z,18.03
2017-05-27T00:17:42.068Z,18.14
2017-05-27T00:18:22.550Z,17.99
2017-05-27T00:19:03.037Z,17.97
2017-05-27T00:19:43.524Z,17.97
2017-05-27T00:20:24.795Z,17.86
2017-05-27T00:21:05.283Z,17.81
2017-05-27T00:21:45.766Z,17.87
2017-05-27T00:22:26.325Z,17.99
2017-05-27T00:23:06.752Z,17.93
2017-05-27T00:23:47.248Z,17.95
2017-05-27T00:24:27.747Z,17.96
2017-05-27T00:25:09.227Z,17.9
2017-05-27T00:25:49.716Z,17.82
2017-05-27T00:26:30.214Z,17.84
2017-05-27T00:27:11.227Z,17.7
2017-05-27T00:27:51.710Z,17.75
2017-05-27T00:28:32.199Z,17.64
2017-05-27T00:30:25.022Z,17.48
2017-05-27T00:31:05.459Z,17.56
2017-05-27T00:31:45.901Z,17.54
2017-05-27T00:32:26.373Z,17.58
2017-05-27T00:33:06.782Z,17.54
2017-05-27T00:33:47.291Z,17.49
2017-05-27T00:34:27.731Z,17.55
2017-05-27T00:35:08.180Z,17.55
2017-05-27T00:35:48.667Z,17.56
2017-05-27T00:36:29.111Z,17.48
2017-05-27T00:37:09.584Z,17.55
2017-05-27T00:37:50.047Z,17.48
2017-05-27T00:39:47.673Z,17.58
2017-05-27T00:40:28.157Z,17.59
2017-05-27T00:41:08.646Z,17.64
2017-05-27T00:41:49.138Z,17.7
2017-05-27T00:42:29.625Z,17.56
2017-05-27T00:43:10.125Z,17.7
2017-05-27T00:43:50.622Z,17.71
2017-05-27T00:44:31.114Z,17.62
2017-05-27T00:45:11.578Z,17.68
2017-05-27T00:45:52.083Z,17.48
2017-05-27T00:46:33.366Z,17.66
2017-05-27T00:47:14.722Z,17.58
2017-05-27T00:47:55.211Z,17.52
2017-05-27T00:48:35.701Z,17.43
2017-05-27T00:49:16.229Z,17.56
2017-05-27T00:49:56.723Z,17.54
2017-05-27T00:50:37.246Z,17.38
2017-05-27T00:51:18.756Z,17.44
2017-05-27T00:51:59.259Z,17.48
2017-05-27T00:52:39.745Z,17.49
2017-05-27T00:53:21.134Z,17.46
2017-05-27T00:54:01.617Z,17.41
2017-05-27T00:54:42.119Z,17.41
2017-05-27T00:55:22.601Z,17.25
2017-05-27T00:56:03.093Z,17.23
2017-05-27T00:56:43.594Z,17.34
2017-05-27T00:57:24.081Z,17.28
2017-05-27T00:58:04.573Z,17.16
2017-05-27T00:58:45.076Z,17.25
2017-05-27T00:59:25.555Z,17.14
2017-05-27T01:00:06.049Z,17.08
2017-05-27T01:00:46.545Z,17.15
2017-05-27T01:02:34.336Z,17.11
2017-05-27T01:03:14.541Z,17.04
2017-05-27T01:03:55.010Z,17.04
2017-05-27T01:04:35.474Z,17.04
2017-05-27T01:05:15.955Z,17.11
2017-05-27T01:05:56.389Z,16.96
2017-05-27T01:06:36.843Z,16.89
2017-05-27T01:07:17.279Z,16.85
2017-05-27T01:07:57.758Z,16.88
2017-05-27T01:08:38.251Z,16.7
2017-05-27T01:09:18.689Z,16.73
2017-05-27T01:09:59.146Z,16.75
2017-05-27T01:10:39.639Z,16.76
2017-05-27T01:12:32.210Z,16.71
2017-05-27T01:13:12.701Z,16.83
2017-05-27T01:13:53.194Z,16.76
2017-05-27T01:14:33.685Z,16.7
2017-05-27T01:15:14.175Z,16.78
2017-05-27T01:15:54.688Z,16.85
2017-05-27T01:16:35.755Z,16.83
2017-05-27T01:17:16.250Z,16.75
2017-05-27T01:17:56.751Z,16.81
2017-05-27T01:18:37.758Z,16.91
2017-05-27T01:19:18.241Z,16.88
2017-05-27T01:19:58.732Z,16.81
2017-05-27T01:20:39.220Z,16.81
2017-05-27T01:21:19.712Z,16.81
2017-05-27T01:22:00.219Z,16.82
2017-05-27T01:22:41.600Z,16.63
2017-05-27T01:23:22.097Z,16.76
2017-05-27T01:24:03.498Z,16.83
2017-05-27T01:24:43.998Z,16.78
2017-05-27T01:25:24.483Z,16.75
2017-05-27T01:26:04.974Z,16.66
2017-05-27T01:26:46.437Z,16.7
2017-05-27T01:27:26.914Z,16.66
2017-05-27T01:28:07.406Z,16.6
2017-05-27T01:28:47.896Z,16.57
2017-05-27T01:29:28.390Z,16.56
2017-05-27T01:30:08.868Z,16.6
2017-05-27T01:30:49.371Z,16.58
2017-05-27T01:31:29.862Z,16.46
2017-05-27T01:32:10.361Z,16.38
2017-05-27T01:32:50.854Z,16.3
2017-05-27T01:33:31.350Z,16.3
2017-05-27T01:34:11.842Z,16.34
2017-05-27T01:34:52.332Z,16.3
2017-05-27T01:35:32.825Z,16.21
2017-05-27T01:36:13.313Z,16.3
2017-05-27T01:36:53.810Z,16.3
2017-05-27T01:39:06.530Z,16.28
2017-05-27T01:39:47.011Z,16.23
2017-05-27T01:40:27.506Z,16.31
2017-05-27T01:41:08.002Z,16.2
2017-05-27T01:41:48.481Z,16.11
2017-05-27T01:42:28.946Z,16.11
2017-05-27T01:43:11.321Z,16.3
2017-05-27T01:43:51.805Z,16.24
2017-05-27T01:46:05.094Z,16.35
2017-05-27T01:46:45.405Z,16.31
2017-05-27T01:47:25.872Z,16.33
2017-05-27T01:48:06.331Z,16.25
2017-05-27T01:48:46.820Z,16.27
2017-05-27T01:49:27.262Z,16.35
2017-05-27T01:51:39.967Z,16.23
2017-05-27T01:52:20.454Z,16.11
2017-05-27T01:53:00.944Z,16.12
2017-05-27T01:53:41.441Z,16.01
2017-05-27T01:54:21.929Z,15.96
2017-05-27T01:55:02.931Z,15.96
2017-05-27T01:55:43.427Z,15.96
2017-05-27T01:56:23.920Z,15.84
2017-05-27T01:57:04.415Z,15.89
2017-05-27T01:57:44.912Z,15.83
2017-05-27T01:58:25.403Z,15.84
2017-05-27T01:59:05.890Z,15.86
2017-05-27T01:59:46.387Z,15.83
2017-05-27T02:00:26.869Z,15.84
2017-05-27T02:01:07.351Z,15.83
2017-05-27T02:01:47.847Z,15.84
2017-05-27T02:02:28.351Z,15.82
2017-05-27T02:03:08.844Z,15.86
2017-05-27T02:03:50.143Z,15.87
2017-05-27T02:04:30.648Z,15.84
2017-05-27T02:05:11.143Z,15.86
2017-05-27T02:05:52.145Z,15.89
2017-05-27T02:06:32.634Z,15.83
2017-05-27T02:07:13.927Z,15.92
2017-05-27T02:07:54.425Z,15.92
2017-05-27T02:08:34.924Z,15.86
2017-05-27T02:09:15.420Z,15.82
2017-05-27T02:09:56.515Z,15.84
2017-05-27T02:10:37.920Z,15.83
2017-05-27T02:11:19.345Z,15.78
2017-05-27T02:11:59.836Z,15.75
2017-05-27T02:12:40.340Z,15.82
2017-05-27T02:13:20.839Z,15.83
2017-05-27T02:14:01.338Z,15.83
2017-05-27T02:14:41.820Z,15.78
2017-05-27T02:15:22.300Z,15.68
2017-05-27T02:16:02.785Z,15.74
2017-05-27T02:16:43.267Z,15.74
2017-05-27T02:17:23.758Z,15.72
2017-05-27T02:18:04.257Z,15.67
2017-05-27T02:18:45.648Z,15.68
2017-05-27T02:19:26.153Z,15.65
2017-05-27T02:20:06.649Z,15.68
2017-05-27T02:20:47.155Z,15.59
2017-05-27T02:21:27.648Z,15.5
2017-05-27T02:22:08.851Z,15.62
2017-05-27T02:22:50.194Z,15.47
2017-05-27T02:23:30.634Z,15.51
2017-05-27T02:24:11.127Z,15.59
2017-05-27T02:24:51.608Z,15.65
2017-05-27T02:25:32.100Z,15.65
2017-05-27T02:26:12.589Z,15.67
2017-05-27T02:26:53.082Z,15.68
2017-05-27T02:27:33.572Z,15.69
2017-05-27T02:28:14.060Z,15.67
2017-05-27T02:28:54.556Z,15.64
2017-05-27T02:29:35.049Z,15.65
2017-05-27T02:30:15.536Z,15.75
2017-05-27T02:30:56.030Z,15.75
2017-05-27T02:31:36.526Z,15.69
2017-05-27T02:32:17.021Z,15.64
2017-05-27T02:32:57.539Z,15.71
2017-05-27T02:33:38.028Z,15.71
2017-05-27T02:34:18.529Z,15.59
2017-05-27T02:34:59.014Z,15.68
2017-05-27T02:35:39.505Z,15.75
2017-05-27T02:36:20.652Z,15.67
2017-05-27T02:37:01.138Z,15.64
2017-05-27T02:37:41.630Z,15.67
2017-05-27T02:38:22.120Z,15.44
2017-05-27T02:39:02.614Z,15.53
2017-05-27T02:39:43.117Z,15.47
2017-05-27T02:40:24.154Z,15.41
2017-05-27T02:41:05.357Z,15.41
2017-05-27T02:41:45.853Z,15.49
2017-05-27T02:42:26.334Z,15.36
2017-05-27T02:43:06.813Z,15.46
2017-05-27T02:43:47.293Z,15.44
2017-05-27T02:44:27.792Z,15.23
2017-05-27T02:45:09.151Z,15.2
2017-05-27T02:45:49.663Z,15.2
2017-05-27T02:46:30.764Z,15.07
2017-05-27T02:47:11.267Z,15.06
2017-05-27T02:47:52.437Z,14.98
2017-05-27T02:48:32.923Z,15.01
2017-05-27T02:49:13.401Z,15.01
2017-05-27T02:51:00.848Z,14.86
2017-05-27T02:51:42.319Z,14.84
2017-05-27T02:52:23.335Z,14.78
2017-05-27T02:53:03.843Z,14.65
2017-05-27T02:53:44.337Z,14.7
2017-05-27T02:54:24.833Z,14.69
2017-05-27T02:55:05.831Z,14.7
2017-05-27T02:55:46.323Z,14.68
2017-05-27T02:56:26.871Z,14.69
2017-05-27T02:57:07.359Z,14.58
2017-05-27T02:57:47.872Z,14.61
2017-05-27T02:58:29.246Z,14.68
2017-05-27T02:59:09.742Z,14.84
2017-05-27T02:59:51.150Z,14.86
2017-05-27T03:00:32.250Z,14.78
2017-05-27T03:01:12.714Z,14.73
2017-05-27T03:01:53.201Z,14.89
2017-05-27T03:02:33.698Z,14.91
2017-05-27T03:03:14.195Z,14.84
2017-05-27T03:03:54.689Z,14.88
2017-05-27T03:04:35.162Z,14.88
2017-05-27T03:05:16.327Z,14.86
2017-05-27T03:05:56.821Z,14.84
2017-05-27T03:06:37.312Z,14.92
2017-05-27T03:07:18.421Z,15.03
2017-05-27T03:07:58.911Z,14.99
2017-05-27T03:08:39.404Z,14.98
2017-05-27T03:09:20.653Z,15.11
2017-05-27T03:10:01.139Z,15.1
2017-05-27T03:10:41.632Z,15.03
2017-05-27T03:11:22.125Z,15.01
2017-05-27T03:12:03.339Z,15.02
2017-05-27T03:12:43.822Z,15.17
2017-05-27T03:13:25.155Z,15.17
2017-05-27T03:14:05.641Z,15.11
2017-05-27T03:14:46.130Z,15.19
2017-05-27T03:15:27.251Z,15.19
2017-05-27T03:16:07.751Z,15.07
2017-05-27T03:16:48.255Z,15.17
2017-05-27T03:17:30.654Z,15.23
2017-05-27T03:18:11.652Z,15.2
2017-05-27T03:18:52.217Z,15.25
2017-05-27T03:19:32.678Z,15.25
2017-05-27T03:20:13.168Z,15.28
2017-05-27T03:20:53.661Z,15.21
2017-05-27T03:21:34.155Z,15.23
2017-05-27T03:22:14.641Z,15.29
2017-05-27T03:22:55.136Z,15.31
2017-05-27T03:23:35.625Z,15.29
2017-05-27T03:24:16.119Z,15.44
2017-05-27T03:24:56.614Z,15.36
2017-05-27T03:25:37.103Z,15.35
2017-05-27T03:26:17.613Z,15.35
2017-05-27T03:26:58.097Z,15.32
2017-05-27T03:27:38.593Z,15.34
2017-05-27T03:28:19.092Z,15.36
2017-05-27T03:29:00.410Z,15.36
2017-05-27T03:29:40.885Z,15.16
2017-05-27T03:30:21.376Z,15.19
2017-05-27T03:31:01.870Z,15.29
2017-05-27T03:31:42.359Z,15.34
2017-05-27T03:32:22.860Z,15.27
2017-05-27T03:33:04.158Z,15.28
2017-05-27T03:33:44.651Z,15.34
2017-05-27T03:34:25.145Z,15.28
2017-05-27T03:35:05.643Z,15.34
2017-05-27T03:35:46.920Z,15.35
2017-05-27T03:36:27.420Z,15.36
2017-05-27T03:37:07.898Z,15.36
2017-05-27T03:37:48.401Z,15.46
2017-05-27T03:38:28.891Z,15.49
2017-05-27T03:39:11.158Z,15.46
2017-05-27T03:39:51.635Z,15.34
2017-05-27T03:40:32.133Z,15.54
2017-05-27T03:41:12.629Z,15.5
2017-05-27T03:41:53.125Z,15.53
2017-05-27T03:42:33.618Z,15.51
2017-05-27T03:43:14.117Z,15.46
2017-05-27T03:43:54.595Z,15.46
2017-05-27T03:44:35.097Z,15.51
2017-05-27T03:45:15.585Z,15.44
2017-05-27T03:45:56.076Z,15.43
2017-05-27T03:46:36.572Z,15.41
2017-05-27T03:47:17.066Z,15.47
2017-05-27T03:47:57.549Z,15.39
2017-05-27T03:48:38.056Z,15.36
2017-05-27T03:49:19.348Z,15.41
2017-05-27T03:49:59.842Z,15.46
2017-05-27T03:50:40.341Z,15.46
2017-05-27T03:51:20.829Z,15.46
2017-05-27T03:52:01.315Z,15.44
2017-05-27T03:52:41.803Z,15.46
2017-05-27T03:53:22.283Z,15.47
2017-05-27T03:54:02.774Z,15.43
2017-05-27T03:54:43.843Z,15.53
2017-05-27T03:55:24.323Z,15.56
2017-05-27T03:56:04.829Z,15.51
2017-05-27T03:56:45.321Z,15.54
2017-05-27T03:57:25.802Z,15.46
2017-05-27T03:58:06.292Z,15.51
2017-05-27T03:58:46.781Z,15.64
2017-05-27T03:59:27.942Z,15.62
2017-05-27T04:00:08.397Z,15.57
2017-05-27T04:00:49.569Z,15.65
2017-05-27T04:01:30.549Z,15.64
2017-05-27T04:02:11.044Z,15.71
2017-05-27T04:02:51.531Z,15.75
2017-05-27T04:03:32.023Z,15.64
2017-05-27T04:04:12.520Z,15.62
2017-05-27T04:04:53.008Z,15.62
2017-05-27T04:05:33.497Z,15.74
2017-05-27T04:06:13.967Z,15.82
2017-05-27T04:06:54.455Z,15.68
2017-05-27T04:07:35.939Z,15.78
2017-05-27T04:08:16.422Z,15.67
2017-05-27T04:08:56.915Z,15.74
2017-05-27T04:09:37.925Z,15.78
2017-05-27T04:10:18.415Z,15.8
2017-05-27T04:10:58.908Z,15.8
2017-05-27T04:11:39.400Z,15.82
2017-05-27T04:12:19.890Z,15.82
2017-05-27T04:13:01.170Z,15.8
2017-05-27T04:13:41.639Z,15.84
2017-05-27T04:14:22.134Z,15.78
2017-05-27T04:15:02.629Z,15.72
2017-05-27T04:15:43.121Z,15.78
2017-05-27T04:16:24.437Z,15.82
2017-05-27T04:17:04.939Z,15.82
2017-05-27T04:17:46.066Z,15.83
2017-05-27T04:18:26.573Z,15.86
2017-05-27T04:19:07.065Z,15.8
2017-05-27T04:19:47.545Z,15.87
2017-05-27T04:20:29.435Z,15.84
2017-05-27T04:21:09.943Z,15.96
2017-05-27T04:21:50.431Z,15.96
2017-05-27T04:22:30.910Z,16.02
2017-05-27T04:23:11.421Z,16.04
2017-05-27T04:23:51.915Z,16.01
2017-05-27T04:24:32.406Z,16.01
2017-05-27T04:25:12.897Z,16.07
2017-05-27T04:25:53.389Z,16.17
2017-05-27T04:26:33.883Z,16.25
2017-05-27T04:27:14.379Z,16.21
2017-05-27T04:27:54.875Z,16.33
2017-05-27T04:28:36.084Z,16.27
2017-05-27T04:29:17.357Z,16.31
2017-05-27T04:29:57.849Z,16.28
2017-05-27T04:30:38.342Z,16.38
2017-05-27T04:31:19.674Z,16.39
2017-05-27T04:32:00.157Z,16.39
2017-05-27T04:32:40.685Z,16.38
2017-05-27T04:33:21.161Z,16.48
2017-05-27T04:34:01.640Z,16.5
2017-05-27T04:34:42.141Z,16.6
2017-05-27T04:35:22.630Z,16.73
2017-05-27T04:36:03.113Z,16.88
2017-05-27T04:36:43.604Z,16.97
2017-05-27T04:37:24.089Z,17.11
2017-05-27T04:38:05.264Z,17.18
2017-05-27T04:38:45.757Z,17.51
2017-05-27T04:39:26.235Z,17.46
2017-05-27T04:40:06.737Z,17.44
2017-05-27T04:40:47.228Z,17.66
2017-05-27T04:41:27.715Z,17.74
2017-05-27T04:42:08.766Z,17.92
2017-05-27T04:42:49.257Z,18.08
2017-05-27T04:43:29.748Z,18.12
2017-05-27T04:44:10.238Z,18.17
2017-05-27T04:44:50.732Z,18.23
2017-05-27T04:45:31.216Z,18.45
2017-05-27T04:46:11.709Z,18.5
2017-05-27T04:46:52.200Z,18.51
2017-05-27T04:47:32.700Z,18.66
2017-05-27T04:48:13.195Z,18.75
2017-05-27T04:48:53.680Z,18.88
2017-05-27T04:49:34.181Z,18.95
2017-05-27T04:50:14.678Z,19.06
2017-05-27T04:50:55.163Z,19.18
2017-05-27T04:51:35.659Z,19.39
2017-05-27T04:52:16.143Z,19.31
2017-05-27T04:52:56.643Z,19.33
2017-05-27T04:53:37.854Z,19.43
2017-05-27T04:54:18.354Z,19.5
2017-05-27T04:54:59.684Z,19.51
2017-05-27T04:55:40.178Z,19.71
2017-05-27T04:56:20.661Z,19.91
2017-05-27T04:58:13.203Z,20.02
2017-05-27T04:58:53.694Z,20.01
2017-05-27T04:59:34.192Z,20.18
2017-05-27T05:00:14.675Z,20.35
2017-05-27T05:00:55.172Z,20.32
2017-05-27T05:01:35.670Z,20.16
2017-05-27T05:02:16.160Z,20.5
2017-05-27T05:02:56.649Z,20.5
2017-05-27T05:03:37.154Z,20.38
2017-05-27T05:04:17.628Z,20.24
2017-05-27T05:04:58.126Z,20.52
2017-05-27T05:05:38.619Z,20.43
2017-05-27T05:06:19.107Z,20.59
2017-05-27T05:06:59.618Z,20.59
2017-05-27T05:07:41.099Z,20.61
2017-05-27T05:08:21.608Z,20.64
2017-05-27T05:09:02.090Z,20.8
2017-05-27T05:09:43.499Z,20.99
2017-05-27T05:10:24.008Z,21.13
2017-05-27T05:11:04.503Z,21.21
2017-05-27T05:11:45.005Z,21.4
2017-05-27T05:12:25.488Z,21.5
2017-05-27T05:13:05.987Z,21.72
2017-05-27T05:13:46.480Z,21.65
2017-05-27T05:14:26.964Z,21.67
2017-05-27T05:15:07.475Z,21.72
2017-05-27T05:15:47.963Z,21.68
2017-05-27T05:16:28.451Z,21.65
2017-05-27T05:17:08.938Z,21.86
2017-05-27T05:17:49.437Z,22.02
2017-05-27T05:18:29.921Z,22.07
2017-05-27T05:19:10.416Z,22.03
2017-05-27T05:19:50.919Z,21.79
2017-05-27T05:20:31.384Z,21.91
2017-05-27T05:21:11.873Z,22.06
2017-05-27T05:21:52.347Z,22.06
2017-05-27T05:22:32.842Z,22.21
2017-05-27T05:23:13.343Z,22.3
2017-05-27T05:23:53.823Z,22.25
2017-05-27T05:24:34.334Z,22.42
2017-05-27T05:26:48.005Z,22.33
2017-05-27T05:27:28.515Z,22.57
2017-05-27T05:28:09.013Z,22.62
2017-05-27T05:28:49.505Z,22.45
2017-05-27T05:29:30.002Z,22.42
2017-05-27T05:30:10.510Z,22.47
2017-05-27T05:30:51.005Z,22.28
2017-05-27T05:31:31.497Z,22.47
2017-05-27T05:32:12.008Z,22.54
2017-05-27T05:32:52.502Z,22.57
2017-05-27T05:33:33.007Z,22.62
2017-05-27T05:34:13.508Z,22.82
2017-05-27T05:34:54.004Z,23.15
2017-05-27T05:35:34.476Z,23.1
2017-05-27T05:36:14.957Z,23.19
2017-05-27T05:36:55.431Z,22.98
2017-05-27T05:37:36.798Z,23
2017-05-27T05:38:17.290Z,22.76
2017-05-27T05:38:57.802Z,22.88
2017-05-27T05:39:38.288Z,22.85
2017-05-27T05:40:18.742Z,22.88
2017-05-27T05:41:56.107Z,22.98
2017-05-27T05:42:36.586Z,23.17
2017-05-27T05:43:17.078Z,23.2
2017-05-27T05:43:57.573Z,23.1
2017-05-27T05:44:38.065Z,22.98
2017-05-27T05:45:18.545Z,23.15
2017-05-27T05:45:59.056Z,23.36
2017-05-27T05:46:39.544Z,23.55
2017-05-27T05:47:20.041Z,23.54
2017-05-27T05:48:00.538Z,23.47
2017-05-27T05:48:41.026Z,23.35
2017-05-27T05:49:21.525Z,23.54
2017-05-27T05:50:02.022Z,23.7
2017-05-27T05:50:42.526Z,23.88
2017-05-27T05:51:23.017Z,24.12
2017-05-27T05:52:03.511Z,24.16
2017-05-27T05:52:44.004Z,23.94
2017-05-27T05:53:24.503Z,23.73
2017-05-27T05:54:05.797Z,23.84
2017-05-27T05:54:46.301Z,23.83
2017-05-27T05:55:26.797Z,23.93
2017-05-27T05:56:07.289Z,24.24
2017-05-27T05:56:47.780Z,24.4
2017-05-27T05:57:28.307Z,24.61
2017-05-27T05:58:08.801Z,24.76
2017-05-27T05:58:49.301Z,24.9
2017-05-27T05:59:29.789Z,24.99
2017-05-27T06:00:10.894Z,25.1
2017-05-27T06:00:51.409Z,24.91
2017-05-27T06:01:31.909Z,25.15
2017-05-27T06:02:13.391Z,25.25
2017-05-27T06:02:53.892Z,25.46
2017-05-27T06:03:34.375Z,25.62
2017-05-27T06:04:14.868Z,25.64
2017-05-27T06:04:55.368Z,25.3
2017-05-27T06:05:35.847Z,25.21
2017-05-27T06:06:17.297Z,25.3
2017-05-27T06:06:57.779Z,25.27
2017-05-27T06:07:38.286Z,25.17
2017-05-27T06:08:18.781Z,24.91
2017-05-27T06:08:59.304Z,25.13
2017-05-27T06:09:39.822Z,25.15
2017-05-27T06:10:20.282Z,25.46
2017-05-27T06:11:00.774Z,25.39
2017-05-27T06:11:41.272Z,25.57
2017-05-27T06:12:21.761Z,25.82
2017-05-27T06:13:02.262Z,25.73
2017-05-27T06:13:42.755Z,25.87
2017-05-27T06:14:23.251Z,25.99
2017-05-27T06:15:04.590Z,26.07
2017-05-27T06:15:46.489Z,26.33
2017-05-27T06:16:27.050Z,26.55
2017-05-27T06:17:07.533Z,26.63
2017-05-27T06:17:48.018Z,27
2017-05-27T06:18:30.008Z,27.14
2017-05-27T06:19:10.473Z,26.6
2017-05-27T06:19:50.978Z,26.36
2017-05-27T06:20:31.491Z,26.09
2017-05-27T06:21:11.993Z,26.28
2017-05-27T06:21:52.487Z,26.17
2017-05-27T06:22:32.986Z,25.94
2017-05-27T06:23:13.481Z,25.88
2017-05-27T06:23:53.978Z,25.7
2017-05-27T06:24:34.478Z,25.58
2017-05-27T06:25:14.966Z,25.73
2017-05-27T06:25:55.448Z,25.99
2017-05-27T06:27:42.921Z,26.72
2017-05-27T06:28:23.423Z,27.1
2017-05-27T06:29:03.953Z,27.27
2017-05-27T06:29:44.392Z,26.73
2017-05-27T06:30:24.889Z,27.18
2017-05-27T06:31:05.379Z,27.14
2017-05-27T06:31:45.870Z,26.73
2017-05-27T06:32:26.362Z,26.6
2017-05-27T06:34:24.058Z,27.74
2017-05-27T06:35:04.502Z,28.04
2017-05-27T06:35:45.970Z,28.31
2017-05-27T06:36:27.292Z,28.55
2017-05-27T06:37:07.775Z,28.58
2017-05-27T06:39:00.312Z,28.68
2017-05-27T06:40:37.671Z,28.04
2017-05-27T06:41:18.158Z,27.84
2017-05-27T06:41:58.647Z,27.96
2017-05-27T06:42:40.038Z,27.79
2017-05-27T06:43:21.348Z,27.72
2017-05-27T06:44:02.630Z,27.9
2017-05-27T06:44:43.110Z,28.12
2017-05-27T06:45:23.604Z,28.24
2017-05-27T06:46:04.090Z,28.74
2017-05-27T06:46:44.589Z,28.68
2017-05-27T06:47:25.083Z,28.89
2017-05-27T06:48:05.581Z,29.21
2017-05-27T06:48:46.070Z,29.11
2017-05-27T06:49:27.218Z,29.04
2017-05-27T06:50:07.705Z,29.09
2017-05-27T06:50:48.198Z,29.27
2017-05-27T06:51:28.694Z,29.16
2017-05-27T06:52:09.153Z,28.67
2017-05-27T06:52:50.453Z,28.34
2017-05-27T06:53:30.949Z,28.39
2017-05-27T06:54:11.438Z,28.62
2017-05-27T06:54:51.936Z,28.8
2017-05-27T06:55:32.426Z,28.73
2017-05-27T06:56:12.911Z,28.7
2017-05-27T06:56:53.379Z,28.66
2017-05-27T06:57:33.878Z,28.73
2017-05-27T06:58:15.149Z,28.95
2017-05-27T06:58:55.635Z,29.27
2017-05-27T06:59:36.127Z,28.95
2017-05-27T07:00:16.597Z,28.9
2017-05-27T07:00:57.083Z,28.86
2017-05-27T07:01:37.557Z,29.09
2017-05-27T07:02:18.029Z,28.92
2017-05-27T07:02:58.479Z,28.93
2017-05-27T07:03:39.640Z,28.89
2017-05-27T07:04:20.119Z,28.9
2017-05-27T07:05:00.577Z,28.96
2017-05-27T07:05:41.638Z,29.27
2017-05-27T07:06:22.092Z,29.19
2017-05-27T07:07:02.553Z,29.27
2017-05-27T07:07:43.029Z,29.3
2017-05-27T07:08:24.237Z,29.46
2017-05-27T07:09:04.733Z,29.26
2017-05-27T07:09:45.224Z,29.41
2017-05-27T07:10:25.724Z,29.49
2017-05-27T07:11:06.217Z,29.51
2017-05-27T07:11:46.714Z,29.67
2017-05-27T07:12:28.067Z,29.92
2017-05-27T07:13:08.573Z,30.26
2017-05-27T07:13:49.066Z,30.16
2017-05-27T07:14:29.584Z,29.98
2017-05-27T07:15:10.091Z,30.43
2017-05-27T07:15:50.575Z,30.39
2017-05-27T07:16:31.071Z,30.34
2017-05-27T07:17:11.571Z,30.57
2017-05-27T07:17:52.060Z,30.15
2017-05-27T07:18:32.550Z,29.94
2017-05-27T07:19:13.055Z,30.04
2017-05-27T07:19:53.532Z,30.7
2017-05-27T07:20:34.029Z,30.89
2017-05-27T07:21:14.512Z,30.72
2017-05-27T07:21:55.007Z,30.89
2017-05-27T07:22:35.491Z,31.19
2017-05-27T07:23:15.998Z,30.95
2017-05-27T07:23:56.490Z,31.04
2017-05-27T07:24:37.651Z,30.99
2017-05-27T07:25:18.155Z,31.47
2017-05-27T07:25:59.378Z,31.35
2017-05-27T07:26:39.890Z,31.41
2017-05-27T07:27:20.369Z,32.14
2017-05-27T07:28:00.869Z,32.26
2017-05-27T07:28:42.231Z,32.67
2017-05-27T07:29:22.722Z,32.33
2017-05-27T07:30:03.221Z,32.32
2017-05-27T07:30:43.714Z,31.92
2017-05-27T07:31:24.217Z,32.1
2017-05-27T07:32:04.712Z,32.45
2017-05-27T07:32:45.215Z,32.5
2017-05-27T07:33:25.710Z,32.13
2017-05-27T07:34:06.204Z,32
2017-05-27T07:34:46.702Z,31.63
2017-05-27T07:35:27.172Z,30.94
2017-05-27T07:36:08.670Z,31.1
2017-05-27T07:36:49.178Z,31.17
2017-05-27T07:37:29.670Z,31.31
2017-05-27T07:38:10.161Z,30.99
2017-05-27T07:38:50.665Z,32.03
2017-05-27T07:39:31.162Z,31.95
2017-05-27T07:40:11.667Z,32.38
2017-05-27T07:40:52.156Z,33.04
2017-05-27T07:41:32.635Z,33.15
2017-05-27T07:42:13.131Z,31.99
2017-05-27T07:42:53.628Z,31.96
2017-05-27T07:43:34.116Z,32.52
2017-05-27T07:44:14.629Z,31.32
2017-05-27T07:44:55.110Z,31.44
2017-05-27T07:45:35.597Z,31.81
2017-05-27T07:46:16.127Z,32
2017-05-27T07:46:56.608Z,32.51
2017-05-27T07:47:37.117Z,31.76
2017-05-27T07:48:17.592Z,32.65
2017-05-27T07:48:58.087Z,32.67
2017-05-27T07:49:38.582Z,32.19
2017-05-27T07:50:19.076Z,32.44
2017-05-27T07:50:59.495Z,32.55
2017-05-27T07:51:39.912Z,32.93
2017-05-27T07:52:20.370Z,33.07
2017-05-27T07:54:13.257Z,33.18
2017-05-27T07:54:53.770Z,32.99
2017-05-27T07:55:34.900Z,32.7
2017-05-27T07:56:15.432Z,31.95
2017-05-27T07:58:28.156Z,32.69
2017-05-27T07:59:08.629Z,32.84
2017-05-27T07:59:49.111Z,32.28
2017-05-27T08:00:29.623Z,32.69
2017-05-27T08:01:10.117Z,32.47
2017-05-27T08:01:50.624Z,32.55
2017-05-27T08:02:31.119Z,33.19
2017-05-27T08:03:11.620Z,33.66
2017-05-27T08:03:52.119Z,34.02
2017-05-27T08:04:32.609Z,33.65
2017-05-27T08:05:13.111Z,33.47
2017-05-27T08:05:53.603Z,32.85
2017-05-27T08:06:34.920Z,33.34
2017-05-27T08:07:15.403Z,33.42
2017-05-27T08:07:55.903Z,33.37
2017-05-27T08:08:36.395Z,33.87
2017-05-27T08:09:16.894Z,34.28
2017-05-27T08:09:57.380Z,34.43
2017-05-27T08:10:37.868Z,34.8
2017-05-27T08:11:18.360Z,33.68
2017-05-27T08:11:58.855Z,33.61
2017-05-27T08:12:39.344Z,33.57
2017-05-27T08:13:19.834Z,34.05
2017-05-27T08:14:01.112Z,33.66
2017-05-27T08:14:41.608Z,34.15
2017-05-27T08:15:22.099Z,34.37
2017-05-27T08:16:02.594Z,35
2017-05-27T08:16:43.076Z,35.06
2017-05-27T08:17:23.576Z,34.73
2017-05-27T08:19:11.054Z,34.15
2017-05-27T08:19:51.549Z,34.52
2017-05-27T08:20:32.046Z,34.52
2017-05-27T08:21:12.532Z,33.87
2017-05-27T08:21:53.033Z,34.16
2017-05-27T08:22:33.537Z,33.68
2017-05-27T08:23:14.035Z,33.72
2017-05-27T08:23:54.545Z,33.19
2017-05-27T08:24:35.037Z,33.45
2017-05-27T08:25:15.516Z,33.88
2017-05-27T08:25:56.004Z,33.6
2017-05-27T08:26:36.508Z,33.44
2017-05-27T08:27:16.994Z,34.12
2017-05-27T08:27:57.505Z,34.27
2017-05-27T08:28:38.005Z,34.1
2017-05-27T08:29:18.504Z,33.66
2017-05-27T08:29:58.998Z,33.22
2017-05-27T08:30:39.494Z,33.98
2017-05-27T08:31:20.850Z,33.79
2017-05-27T08:32:01.338Z,34.39
2017-05-27T08:32:41.819Z,34.09
2017-05-27T08:33:22.399Z,34.22
2017-05-27T08:34:03.737Z,34.58
2017-05-27T08:34:44.219Z,34.82
2017-05-27T08:35:25.356Z,35.33
2017-05-27T08:36:05.823Z,35.68
2017-05-27T08:36:46.322Z,35.56
2017-05-27T08:37:26.814Z,35.06
2017-05-27T08:38:07.316Z,34.49
2017-05-27T08:38:47.809Z,34.17
2017-05-27T08:39:28.314Z,34.16
2017-05-27T08:40:08.813Z,34.43
2017-05-27T08:40:49.317Z,33.98
2017-05-27T08:41:29.797Z,34.97
2017-05-27T08:43:17.303Z,36.6
2017-05-27T08:43:57.783Z,37.02
2017-05-27T08:44:38.275Z,36.84
2017-05-27T08:45:18.737Z,36.93
2017-05-27T08:47:16.439Z,35.93
2017-05-27T08:47:56.847Z,35.93
2017-05-27T08:48:37.334Z,35.8
2017-05-27T08:50:50.102Z,36.15
2017-05-27T08:51:30.578Z,36.72
2017-05-27T08:52:11.065Z,36.75
2017-05-27T08:52:51.572Z,36.01
2017-05-27T08:53:32.068Z,34.92
2017-05-27T08:54:12.516Z,35.65
2017-05-27T08:54:52.982Z,36.37
2017-05-27T08:55:33.436Z,36.47
2017-05-27T08:56:13.892Z,36.76
2017-05-27T08:56:54.345Z,36.75
2017-05-27T08:57:34.815Z,37.47
2017-05-27T08:58:15.327Z,38.22
2017-05-27T09:00:13.000Z,38.76
2017-05-27T09:00:53.472Z,39.48
2017-05-27T09:01:33.964Z,40.01
2017-05-27T09:02:15.449Z,38.87
2017-05-27T09:02:55.967Z,39.22
2017-05-27T09:03:36.456Z,40
2017-05-27T09:04:16.949Z,40.61
2017-05-27T09:04:57.440Z,40.45
2017-05-27T09:05:37.957Z,39.29
2017-05-27T09:06:18.390Z,39.22
2017-05-27T09:06:58.873Z,39.29
2017-05-27T09:07:39.364Z,38.88
2017-05-27T09:08:19.865Z,39.04
2017-05-27T09:09:00.353Z,38.78
2017-05-27T09:09:40.843Z,39.06
2017-05-27T09:10:21.340Z,36.87
2017-05-27T09:11:01.824Z,35.94
2017-05-27T09:11:42.325Z,36.6
2017-05-27T09:12:22.811Z,37.22